sensor_id;sensor_type;location;lat;lon;timestamp;pressure;altitude;pressure_sealevel;temperature;humidity
77003;BME280;65939;50.060;14.288;2023-12-04T00:01:02;97784.69;;;-4.94;84.24
77003;BME280;65939;50.060;14.288;2023-12-04T00:03:03;97773.78;;;-4.98;84.70
77003;BME280;65939;50.060;14.288;2023-12-04T00:05:05;97771.25;;;-4.99;84.83
77003;BME280;65939;50.060;14.288;2023-12-04T00:07:06;97766.31;;;-5.04;85.23
77003;BME280;65939;50.060;14.288;2023-12-04T00:09:06;97757.13;;;-5.08;84.88
77003;BME280;65939;50.060;14.288;2023-12-04T00:11:08;97758.94;;;-5.12;85.02
77003;BME280;65939;50.060;14.288;2023-12-04T00:13:08;97764.94;;;-5.14;85.08
77003;BME280;65939;50.060;14.288;2023-12-04T00:15:09;97765.84;;;-5.17;85.00
77003;BME280;65939;50.060;14.288;2023-12-04T00:17:10;97759.94;;;-5.17;85.06
77003;BME280;65939;50.060;14.288;2023-12-04T00:19:13;97761.72;;;-5.19;84.71
77003;BME280;65939;50.060;14.288;2023-12-04T00:21:14;97759.19;;;-5.21;84.99
77003;BME280;65939;50.060;14.288;2023-12-04T00:23:15;97760.91;;;-5.21;85.59
77003;BME280;65939;50.060;14.288;2023-12-04T00:25:19;97762.63;;;-5.22;85.65
77003;BME280;65939;50.060;14.288;2023-12-04T00:27:19;97764.38;;;-5.24;85.15
77003;BME280;65939;50.060;14.288;2023-12-04T00:29:21;97755.91;;;-5.24;85.27
77003;BME280;65939;50.060;14.288;2023-12-04T00:31:22;97753.44;;;-5.26;85.57
77003;BME280;65939;50.060;14.288;2023-12-04T00:33:22;97750.97;;;-5.29;85.25
77003;BME280;65939;50.060;14.288;2023-12-04T00:35:23;97742.53;;;-5.30;85.45
77003;BME280;65939;50.060;14.288;2023-12-04T00:37:24;97741.66;;;-5.30;85.45
77003;BME280;65939;50.060;14.288;2023-12-04T00:39:25;97748.47;;;-5.31;85.38
77003;BME280;65939;50.060;14.288;2023-12-04T00:41:28;97751.91;;;-5.32;85.81
77003;BME280;65939;50.060;14.288;2023-12-04T00:43:29;97752.72;;;-5.31;85.70
77003;BME280;65939;50.060;14.288;2023-12-04T00:45:30;97752.69;;;-5.30;85.93
77003;BME280;65939;50.060;14.288;2023-12-04T00:47:30;97755.25;;;-5.30;85.49
77003;BME280;65939;50.060;14.288;2023-12-04T00:49:31;97755.25;;;-5.30;85.48
77003;BME280;65939;50.060;14.288;2023-12-04T00:51:38;97745.00;;;-5.28;85.66
77003;BME280;65939;50.060;14.288;2023-12-04T00:53:39;97743.28;;;-5.27;85.94
77003;BME280;65939;50.060;14.288;2023-12-04T00:55:39;97739.03;;;-5.27;86.04
77003;BME280;65939;50.060;14.288;2023-12-04T00:57:40;97736.47;;;-5.27;85.78
77003;BME280;65939;50.060;14.288;2023-12-04T00:59:41;97737.38;;;-5.28;85.56
77003;BME280;65939;50.060;14.288;2023-12-04T01:01:42;97737.44;;;-5.30;84.92
77003;BME280;65939;50.060;14.288;2023-12-04T01:03:46;97738.28;;;-5.31;84.74
77003;BME280;65939;50.060;14.288;2023-12-04T01:05:47;97736.72;;;-5.35;84.22
77003;BME280;65939;50.060;14.288;2023-12-04T01:07:47;97742.69;;;-5.36;84.65
77003;BME280;65939;50.060;14.288;2023-12-04T01:09:48;97749.53;;;-5.38;84.15
77003;BME280;65939;50.060;14.288;2023-12-04T01:11:49;97748.84;;;-5.43;84.28
77003;BME280;65939;50.060;14.288;2023-12-04T01:13:49;97756.50;;;-5.44;84.06
77003;BME280;65939;50.060;14.288;2023-12-04T01:15:50;97763.38;;;-5.46;84.39
77003;BME280;65939;50.060;14.288;2023-12-04T01:17:51;97766.00;;;-5.49;84.43
77003;BME280;65939;50.060;14.288;2023-12-04T01:19:52;97772.00;;;-5.52;84.09
77003;BME280;65939;50.060;14.288;2023-12-04T01:21:52;97761.88;;;-5.54;84.12
77003;BME280;65939;50.060;14.288;2023-12-04T01:23:56;97762.78;;;-5.55;84.39
77003;BME280;65939;50.060;14.288;2023-12-04T01:25:57;97767.88;;;-5.56;83.94
77003;BME280;65939;50.060;14.288;2023-12-04T01:27:59;97766.22;;;-5.57;83.85
77003;BME280;65939;50.060;14.288;2023-12-04T01:30:00;97763.72;;;-5.59;84.26
77003;BME280;65939;50.060;14.288;2023-12-04T01:32:03;97762.06;;;-5.60;84.39
77003;BME280;65939;50.060;14.288;2023-12-04T01:34:04;97755.31;;;-5.61;83.88
77003;BME280;65939;50.060;14.288;2023-12-04T01:36:05;97771.47;;;-5.62;83.75
77003;BME280;65939;50.060;14.288;2023-12-04T01:38:06;97758.00;;;-5.65;83.53
77003;BME280;65939;50.060;14.288;2023-12-04T01:40:09;97764.00;;;-5.68;83.86
77003;BME280;65939;50.060;14.288;2023-12-04T01:42:10;97758.16;;;-5.71;83.66
77003;BME280;65939;50.060;14.288;2023-12-04T01:44:11;97769.25;;;-5.74;83.49
77003;BME280;65939;50.060;14.288;2023-12-04T01:46:13;97757.44;;;-5.77;83.35
77003;BME280;65939;50.060;14.288;2023-12-04T01:48:17;97756.75;;;-5.82;83.49
77003;BME280;65939;50.060;14.288;2023-12-04T01:50:18;97763.63;;;-5.85;82.99
77003;BME280;65939;50.060;14.288;2023-12-04T01:52:19;97761.97;;;-5.86;83.37
77003;BME280;65939;50.060;14.288;2023-12-04T01:54:20;97758.63;;;-5.88;83.32
77003;BME280;65939;50.060;14.288;2023-12-04T01:56:21;97762.09;;;-5.91;82.99
77003;BME280;65939;50.060;14.288;2023-12-04T01:58:23;97763.06;;;-5.93;83.24
77003;BME280;65939;50.060;14.288;2023-12-04T02:00:24;97753.75;;;-5.94;83.18
77003;BME280;65939;50.060;14.288;2023-12-04T02:02:27;97751.31;;;-5.97;83.31
77003;BME280;65939;50.060;14.288;2023-12-04T02:04:31;97748.81;;;-5.99;83.26
77003;BME280;65939;50.060;14.288;2023-12-04T02:06:32;97740.41;;;-6.01;82.82
77003;BME280;65939;50.060;14.288;2023-12-04T02:08:33;97746.34;;;-6.02;83.17
77003;BME280;65939;50.060;14.288;2023-12-04T02:10:35;97739.59;;;-6.03;83.51
77003;BME280;65939;50.060;14.288;2023-12-04T02:12:38;97742.22;;;-6.06;83.07
77003;BME280;65939;50.060;14.288;2023-12-04T02:14:39;97741.44;;;-6.08;83.04
77003;BME280;65939;50.060;14.288;2023-12-04T02:16:42;97735.56;;;-6.10;83.30
77003;BME280;65939;50.060;14.288;2023-12-04T02:18:46;97733.91;;;-6.11;83.52
77003;BME280;65939;50.060;14.288;2023-12-04T02:20:47;97728.91;;;-6.14;82.92
77003;BME280;65939;50.060;14.288;2023-12-04T02:22:47;97729.00;;;-6.17;83.04
77003;BME280;65939;50.060;14.288;2023-12-04T02:24:48;97730.69;;;-6.18;83.38
77003;BME280;65939;50.060;14.288;2023-12-04T02:26:58;97729.06;;;-6.20;83.13
77003;BME280;65939;50.060;14.288;2023-12-04T02:29:07;97725.84;;;-6.25;82.75
77003;BME280;65939;50.060;14.288;2023-12-04T02:31:10;97724.19;;;-6.28;83.11
77003;BME280;65939;50.060;14.288;2023-12-04T02:33:13;97714.94;;;-6.31;83.31
77003;BME280;65939;50.060;14.288;2023-12-04T02:35:20;97712.50;;;-6.34;83.46
77003;BME280;65939;50.060;14.288;2023-12-04T02:37:23;97715.06;;;-6.35;83.54
77003;BME280;65939;50.060;14.288;2023-12-04T02:39:24;97714.25;;;-6.36;83.37
77003;BME280;65939;50.060;14.288;2023-12-04T02:41:24;97725.25;;;-6.37;83.55
77003;BME280;65939;50.060;14.288;2023-12-04T02:43:25;97716.88;;;-6.39;83.44
77003;BME280;65939;50.060;14.288;2023-12-04T02:45:26;97721.06;;;-6.38;83.45
77003;BME280;65939;50.060;14.288;2023-12-04T02:47:26;97721.91;;;-6.37;83.59
77003;BME280;65939;50.060;14.288;2023-12-04T02:49:27;97710.09;;;-6.38;83.83
77003;BME280;65939;50.060;14.288;2023-12-04T02:51:28;97704.94;;;-6.37;83.87
77003;BME280;65939;50.060;14.288;2023-12-04T02:53:28;97705.75;;;-6.35;83.37
77003;BME280;65939;50.060;14.288;2023-12-04T02:55:29;97707.47;;;-6.35;83.61
77003;BME280;65939;50.060;14.288;2023-12-04T02:57:30;97710.03;;;-6.37;83.43
77003;BME280;65939;50.060;14.288;2023-12-04T02:59:30;97709.25;;;-6.39;83.30
77003;BME280;65939;50.060;14.288;2023-12-04T03:01:31;97710.16;;;-6.41;83.53
77003;BME280;65939;50.060;14.288;2023-12-04T03:03:32;97705.97;;;-6.44;83.56
77003;BME280;65939;50.060;14.288;2023-12-04T03:05:32;97708.56;;;-6.45;83.95
77003;BME280;65939;50.060;14.288;2023-12-04T03:07:33;97696.75;;;-6.46;83.73
77003;BME280;65939;50.060;14.288;2023-12-04T03:09:33;97689.16;;;-6.46;84.01
77003;BME280;65939;50.060;14.288;2023-12-04T03:11:34;97689.16;;;-6.48;84.20
77003;BME280;65939;50.060;14.288;2023-12-04T03:13:35;97686.63;;;-6.48;83.63
77003;BME280;65939;50.060;14.288;2023-12-04T03:15:35;97674.75;;;-6.47;84.64
77003;BME280;65939;50.060;14.288;2023-12-04T03:17:36;97673.09;;;-6.48;83.91
77003;BME280;65939;50.060;14.288;2023-12-04T03:19:37;97668.94;;;-6.51;83.92
77003;BME280;65939;50.060;14.288;2023-12-04T03:21:37;97668.06;;;-6.50;84.23
77003;BME280;65939;50.060;14.288;2023-12-04T03:23:38;97672.31;;;-6.51;84.49
77003;BME280;65939;50.060;14.288;2023-12-04T03:25:39;97673.97;;;-6.49;84.71
77003;BME280;65939;50.060;14.288;2023-12-04T03:27:39;97668.84;;;-6.48;84.44
77003;BME280;65939;50.060;14.288;2023-12-04T03:29:40;97668.03;;;-6.48;84.49
77003;BME280;65939;50.060;14.288;2023-12-04T03:31:41;97662.94;;;-6.48;84.50
77003;BME280;65939;50.060;14.288;2023-12-04T03:33:41;97658.69;;;-6.48;84.17
77003;BME280;65939;50.060;14.288;2023-12-04T03:35:42;97655.38;;;-6.50;84.70
77003;BME280;65939;50.060;14.288;2023-12-04T03:37:42;97663.81;;;-6.49;84.62
77003;BME280;65939;50.060;14.288;2023-12-04T03:39:43;97665.53;;;-6.50;84.47
77003;BME280;65939;50.060;14.288;2023-12-04T03:41:44;97659.63;;;-6.51;84.81
77003;BME280;65939;50.060;14.288;2023-12-04T03:43:45;97657.94;;;-6.52;84.58
77003;BME280;65939;50.060;14.288;2023-12-04T03:45:46;97653.69;;;-6.51;84.74
77003;BME280;65939;50.060;14.288;2023-12-04T03:47:46;97654.56;;;-6.52;84.58
77003;BME280;65939;50.060;14.288;2023-12-04T03:49:47;97658.00;;;-6.53;84.96
77003;BME280;65939;50.060;14.288;2023-12-04T03:51:47;97653.81;;;-6.54;84.47
77003;BME280;65939;50.060;14.288;2023-12-04T03:53:48;97647.91;;;-6.56;84.37
77003;BME280;65939;50.060;14.288;2023-12-04T03:55:49;97642.03;;;-6.58;84.30
77003;BME280;65939;50.060;14.288;2023-12-04T03:57:49;97639.50;;;-6.58;84.63
77003;BME280;65939;50.060;14.288;2023-12-04T03:59:50;97642.94;;;-6.59;84.64
77003;BME280;65939;50.060;14.288;2023-12-04T04:01:51;97642.97;;;-6.61;84.38
77003;BME280;65939;50.060;14.288;2023-12-04T04:03:52;97650.63;;;-6.62;84.20
77003;BME280;65939;50.060;14.288;2023-12-04T04:05:52;97637.16;;;-6.64;84.75
77003;BME280;65939;50.060;14.288;2023-12-04T04:07:53;97633.78;;;-6.65;84.71
77003;BME280;65939;50.060;14.288;2023-12-04T04:09:55;97637.16;;;-6.64;85.00
77003;BME280;65939;50.060;14.288;2023-12-04T04:11:55;97633.78;;;-6.65;84.44
77003;BME280;65939;50.060;14.288;2023-12-04T04:13:56;97640.53;;;-6.65;84.68
77003;BME280;65939;50.060;14.288;2023-12-04T04:15:57;97641.41;;;-6.65;84.60
77003;BME280;65939;50.060;14.288;2023-12-04T04:17:57;97636.31;;;-6.65;84.49
77003;BME280;65939;50.060;14.288;2023-12-04T04:19:58;97637.16;;;-6.64;84.46
77003;BME280;65939;50.060;14.288;2023-12-04T04:21:59;97640.53;;;-6.65;84.63
77003;BME280;65939;50.060;14.288;2023-12-04T04:24:00;97646.44;;;-6.63;84.94
77003;BME280;65939;50.060;14.288;2023-12-04T04:26:00;97639.63;;;-6.63;85.01
77003;BME280;65939;50.060;14.288;2023-12-04T04:28:01;97641.28;;;-6.62;84.84
77003;BME280;65939;50.060;14.288;2023-12-04T04:30:02;97638.72;;;-6.60;85.47
77003;BME280;65939;50.060;14.288;2023-12-04T04:32:05;97638.66;;;-6.59;84.83
77003;BME280;65939;50.060;14.288;2023-12-04T04:34:05;97634.41;;;-6.58;84.86
77003;BME280;65939;50.060;14.288;2023-12-04T04:36:09;97625.94;;;-6.57;85.35
77003;BME280;65939;50.060;14.288;2023-12-04T04:38:10;97630.94;;;-6.54;85.38
77003;BME280;65939;50.060;14.288;2023-12-04T04:40:10;97626.69;;;-6.54;84.50
77003;BME280;65939;50.060;14.288;2023-12-04T04:42:11;97623.34;;;-6.54;84.78
77003;BME280;65939;50.060;14.288;2023-12-04T04:44:12;97627.53;;;-6.53;84.35
77003;BME280;65939;50.060;14.288;2023-12-04T04:46:13;97623.34;;;-6.54;84.73
77003;BME280;65939;50.060;14.288;2023-12-04T04:48:13;97628.41;;;-6.54;84.63
77003;BME280;65939;50.060;14.288;2023-12-04T04:50:14;97635.97;;;-6.53;84.60
77003;BME280;65939;50.060;14.288;2023-12-04T04:52:15;97643.66;;;-6.54;84.51
77003;BME280;65939;50.060;14.288;2023-12-04T04:54:15;97642.84;;;-6.56;84.63
77003;BME280;65939;50.060;14.288;2023-12-04T04:56:17;97639.50;;;-6.58;84.73
77003;BME280;65939;50.060;14.288;2023-12-04T04:58:17;97642.03;;;-6.58;84.40
77003;BME280;65939;50.060;14.288;2023-12-04T05:00:18;97646.28;;;-6.59;83.83
77003;BME280;65939;50.060;14.288;2023-12-04T05:02:19;97651.34;;;-6.57;83.93
77003;BME280;65939;50.060;14.288;2023-12-04T05:04:19;97650.47;;;-6.56;83.96
77003;BME280;65939;50.060;14.288;2023-12-04T05:06:20;97641.19;;;-6.57;84.10
77003;BME280;65939;50.060;14.288;2023-12-04T05:08:22;97643.72;;;-6.57;84.07
77003;BME280;65939;50.060;14.288;2023-12-04T05:10:23;97642.03;;;-6.58;84.26
77003;BME280;65939;50.060;14.288;2023-12-04T05:12:24;97631.03;;;-6.57;83.98
77003;BME280;65939;50.060;14.288;2023-12-04T05:14:24;97629.34;;;-6.58;83.82
77003;BME280;65939;50.060;14.288;2023-12-04T05:16:27;97631.88;;;-6.58;83.89
77003;BME280;65939;50.060;14.288;2023-12-04T05:18:28;97632.75;;;-6.59;83.86
77003;BME280;65939;50.060;14.288;2023-12-04T05:20:28;97632.75;;;-6.59;83.85
77003;BME280;65939;50.060;14.288;2023-12-04T05:22:29;97631.88;;;-6.58;84.23
77003;BME280;65939;50.060;14.288;2023-12-04T05:24:29;97629.31;;;-6.57;84.28
77003;BME280;65939;50.060;14.288;2023-12-04T05:26:30;97620.00;;;-6.56;84.19
77003;BME280;65939;50.060;14.288;2023-12-04T05:28:31;97620.78;;;-6.54;84.24
77003;BME280;65939;50.060;14.288;2023-12-04T05:30:32;97619.09;;;-6.54;84.32
77003;BME280;65939;50.060;14.288;2023-12-04T05:32:33;97611.47;;;-6.54;84.18
77003;BME280;65939;50.060;14.288;2023-12-04T05:34:33;97609.75;;;-6.53;83.92
77003;BME280;65939;50.060;14.288;2023-12-04T05:36:34;97611.41;;;-6.52;83.71
77003;BME280;65939;50.060;14.288;2023-12-04T05:38:35;97603.78;;;-6.52;83.78
77003;BME280;65939;50.060;14.288;2023-12-04T05:40:35;97608.84;;;-6.51;83.83
77003;BME280;65939;50.060;14.288;2023-12-04T05:42:37;97600.34;;;-6.49;84.10
77003;BME280;65939;50.060;14.288;2023-12-04T05:44:37;97603.72;;;-6.49;84.07
77003;BME280;65939;50.060;14.288;2023-12-04T05:46:38;97602.00;;;-6.48;84.09
77003;BME280;65939;50.060;14.288;2023-12-04T05:48:39;97601.97;;;-6.47;84.41
77003;BME280;65939;50.060;14.288;2023-12-04T05:50:39;97596.00;;;-6.46;85.08
77003;BME280;65939;50.060;14.288;2023-12-04T05:52:40;97592.59;;;-6.45;84.68
77003;BME280;65939;50.060;14.288;2023-12-04T05:54:41;97590.03;;;-6.45;84.49
77003;BME280;65939;50.060;14.288;2023-12-04T05:56:42;97588.31;;;-6.43;84.69
77003;BME280;65939;50.060;14.288;2023-12-04T05:58:43;97589.06;;;-6.41;84.77
77003;BME280;65939;50.060;14.288;2023-12-04T06:00:44;97590.75;;;-6.40;84.76
77003;BME280;65939;50.060;14.288;2023-12-04T06:02:45;97589.06;;;-6.39;84.64
77003;BME280;65939;50.060;14.288;2023-12-04T06:04:45;97592.41;;;-6.39;85.24
77003;BME280;65939;50.060;14.288;2023-12-04T06:06:46;97587.34;;;-6.39;84.87
77003;BME280;65939;50.060;14.288;2023-12-04T06:08:47;97592.41;;;-6.39;84.38
77003;BME280;65939;50.060;14.288;2023-12-04T06:10:47;97591.53;;;-6.38;84.47
77003;BME280;65939;50.060;14.288;2023-12-04T06:12:48;97588.97;;;-6.36;84.58
77003;BME280;65939;50.060;14.288;2023-12-04T06:14:49;97589.81;;;-6.37;84.60
77003;BME280;65939;50.060;14.288;2023-12-04T06:16:49;97591.50;;;-6.36;84.28
77003;BME280;65939;50.060;14.288;2023-12-04T06:18:50;97592.34;;;-6.36;84.55
77003;BME280;65939;50.060;14.288;2023-12-04T06:20:51;97589.72;;;-6.34;84.22
77003;BME280;65939;50.060;14.288;2023-12-04T06:22:51;97594.81;;;-6.34;84.27
77003;BME280;65939;50.060;14.288;2023-12-04T06:24:52;97582.09;;;-6.33;83.99
77003;BME280;65939;50.060;14.288;2023-12-04T06:26:53;97577.84;;;-6.32;83.43
77003;BME280;65939;50.060;14.288;2023-12-04T06:28:54;97585.47;;;-6.34;83.93
77003;BME280;65939;50.060;14.288;2023-12-04T06:30:55;97584.66;;;-6.34;83.75
77003;BME280;65939;50.060;14.288;2023-12-04T06:32:56;97575.31;;;-6.34;83.73
77003;BME280;65939;50.060;14.288;2023-12-04T06:34:57;97574.50;;;-6.34;83.56
77003;BME280;65939;50.060;14.288;2023-12-04T06:36:59;97570.31;;;-6.35;83.54
77003;BME280;65939;50.060;14.288;2023-12-04T06:39:02;97567.78;;;-6.37;83.30
77003;BME280;65939;50.060;14.288;2023-12-04T06:41:05;97571.22;;;-6.38;83.10
77003;BME280;65939;50.060;14.288;2023-12-04T06:43:06;97562.75;;;-6.38;83.15
77003;BME280;65939;50.060;14.288;2023-12-04T06:45:08;97566.97;;;-6.37;83.19
77003;BME280;65939;50.060;14.288;2023-12-04T06:47:09;97560.16;;;-6.37;83.31
77003;BME280;65939;50.060;14.288;2023-12-04T06:49:11;97558.50;;;-6.36;83.28
77003;BME280;65939;50.060;14.288;2023-12-04T06:51:14;97561.03;;;-6.36;82.97
77003;BME280;65939;50.060;14.288;2023-12-04T06:53:15;97558.44;;;-6.35;83.21
77003;BME280;65939;50.060;14.288;2023-12-04T06:55:15;97557.59;;;-6.35;83.16
77003;BME280;65939;50.060;14.288;2023-12-04T06:57:16;97558.50;;;-6.36;83.61
77003;BME280;65939;50.060;14.288;2023-12-04T06:59:20;97557.59;;;-6.35;83.16
77003;BME280;65939;50.060;14.288;2023-12-04T07:01:21;97557.63;;;-6.37;82.95
77003;BME280;65939;50.060;14.288;2023-12-04T07:03:22;97548.34;;;-6.38;82.50
77003;BME280;65939;50.060;14.288;2023-12-04T07:05:22;97544.09;;;-6.37;82.80
77003;BME280;65939;50.060;14.288;2023-12-04T07:07:23;97544.94;;;-6.37;82.94
77003;BME280;65939;50.060;14.288;2023-12-04T07:09:24;97553.34;;;-6.35;82.98
77003;BME280;65939;50.060;14.288;2023-12-04T07:11:24;97550.75;;;-6.33;83.04
77003;BME280;65939;50.060;14.288;2023-12-04T07:13:25;97548.13;;;-6.30;83.09
77003;BME280;65939;50.060;14.288;2023-12-04T07:15:26;97543.84;;;-6.28;82.67
77003;BME280;65939;50.060;14.288;2023-12-04T07:17:26;97545.47;;;-6.25;82.36
77003;BME280;65939;50.060;14.288;2023-12-04T07:19:27;97539.50;;;-6.24;82.57
77003;BME280;65939;50.060;14.288;2023-12-04T07:21:27;97542.84;;;-6.22;82.79
77003;BME280;65939;50.060;14.288;2023-12-04T07:23:29;97540.22;;;-6.21;82.84
77003;BME280;65939;50.060;14.288;2023-12-04T07:25:29;97546.88;;;-6.17;82.45
77003;BME280;65939;50.060;14.288;2023-12-04T07:27:30;97543.44;;;-6.14;82.62
77003;BME280;65939;50.060;14.288;2023-12-04T07:29:31;97540.72;;;-6.10;82.64
77003;BME280;65939;50.060;14.288;2023-12-04T07:31:31;97545.66;;;-6.05;82.29
77003;BME280;65939;50.060;14.288;2023-12-04T07:33:32;97553.16;;;-6.00;82.55
77003;BME280;65939;50.060;14.288;2023-12-04T07:35:33;97538.59;;;-5.95;82.41
77003;BME280;65939;50.060;14.288;2023-12-04T07:37:34;97543.47;;;-5.89;82.33
77003;BME280;65939;50.060;14.288;2023-12-04T07:39:34;97538.22;;;-5.85;82.06
77003;BME280;65939;50.060;14.288;2023-12-04T07:41:35;97537.16;;;-5.78;81.95
77003;BME280;65939;50.060;14.288;2023-12-04T07:43:36;97543.78;;;-5.73;81.77
77003;BME280;65939;50.060;14.288;2023-12-04T07:45:37;97530.09;;;-5.69;81.42
77003;BME280;65939;50.060;14.288;2023-12-04T07:47:37;97534.25;;;-5.67;81.26
77003;BME280;65939;50.060;14.288;2023-12-04T07:49:38;97534.22;;;-5.65;81.42
77003;BME280;65939;50.060;14.288;2023-12-04T07:51:39;97524.81;;;-5.63;81.15
77003;BME280;65939;50.060;14.288;2023-12-04T07:53:39;97525.63;;;-5.63;81.35
77003;BME280;65939;50.060;14.288;2023-12-04T07:55:40;97525.53;;;-5.60;81.13
77003;BME280;65939;50.060;14.288;2023-12-04T07:57:41;97532.19;;;-5.56;81.09
77003;BME280;65939;50.060;14.288;2023-12-04T07:59:41;97534.59;;;-5.51;80.93
77003;BME280;65939;50.060;14.288;2023-12-04T08:01:42;97533.59;;;-5.47;80.98
77003;BME280;65939;50.060;14.288;2023-12-04T08:03:44;97526.63;;;-5.42;81.02
77003;BME280;65939;50.060;14.288;2023-12-04T08:05:45;97522.25;;;-5.37;80.69
77003;BME280;65939;50.060;14.288;2023-12-04T08:07:45;97522.13;;;-5.34;80.21
77003;BME280;65939;50.060;14.288;2023-12-04T08:09:46;97522.00;;;-5.31;80.44
77003;BME280;65939;50.060;14.288;2023-12-04T08:11:47;97514.28;;;-5.27;80.20
77003;BME280;65939;50.060;14.288;2023-12-04T08:13:47;97524.34;;;-5.24;80.17
77003;BME280;65939;50.060;14.288;2023-12-04T08:15:48;97517.50;;;-5.22;80.22
77003;BME280;65939;50.060;14.288;2023-12-04T08:17:49;97515.78;;;-5.22;79.75
77003;BME280;65939;50.060;14.288;2023-12-04T08:19:49;97517.34;;;-5.18;80.09
77003;BME280;65939;50.060;14.288;2023-12-04T08:21:50;97508.72;;;-5.14;79.90
77003;BME280;65939;50.060;14.288;2023-12-04T08:23:51;97513.59;;;-5.08;79.72
77003;BME280;65939;50.060;14.288;2023-12-04T08:25:51;97512.53;;;-5.02;79.87
77003;BME280;65939;50.060;14.288;2023-12-04T08:27:52;97514.88;;;-4.96;79.98
77003;BME280;65939;50.060;14.288;2023-12-04T08:29:52;97509.56;;;-4.90;79.46
77003;BME280;65939;50.060;14.288;2023-12-04T08:31:53;97505.09;;;-4.83;79.50
77003;BME280;65939;50.060;14.288;2023-12-04T08:33:54;97507.28;;;-4.74;79.76
77003;BME280;65939;50.060;14.288;2023-12-04T08:35:55;97513.78;;;-4.65;79.61
77003;BME280;65939;50.060;14.288;2023-12-04T08:37:55;97509.22;;;-4.57;79.45
77003;BME280;65939;50.060;14.288;2023-12-04T08:39:56;97510.56;;;-4.48;79.07
77003;BME280;65939;50.060;14.288;2023-12-04T08:41:57;97511.16;;;-4.42;78.93
77003;BME280;65939;50.060;14.288;2023-12-04T08:43:58;97515.84;;;-4.31;79.27
77003;BME280;65939;50.060;14.288;2023-12-04T08:45:58;97509.63;;;-4.24;78.75
77003;BME280;65939;50.060;14.288;2023-12-04T08:48:00;97515.41;;;-4.19;78.48
77003;BME280;65939;50.060;14.288;2023-12-04T08:50:01;97507.69;;;-4.17;78.05
77003;BME280;65939;50.060;14.288;2023-12-04T08:52:02;97506.56;;;-4.10;78.41
77003;BME280;65939;50.060;14.288;2023-12-04T08:54:04;97514.69;;;-4.00;78.42
77003;BME280;65939;50.060;14.288;2023-12-04T08:56:05;97514.50;;;-3.96;78.01
77003;BME280;65939;50.060;14.288;2023-12-04T08:58:05;97505.72;;;-3.89;78.28
77003;BME280;65939;50.060;14.288;2023-12-04T09:00:06;97505.34;;;-3.79;78.32
77003;BME280;65939;50.060;14.288;2023-12-04T09:02:08;97501.66;;;-3.72;78.19
77003;BME280;65939;50.060;14.288;2023-12-04T09:04:10;97511.47;;;-3.63;78.31
77003;BME280;65939;50.060;14.288;2023-12-04T09:06:11;97498.47;;;-3.57;77.65
77003;BME280;65939;50.060;14.288;2023-12-04T09:08:12;97501.69;;;-3.52;77.68
77003;BME280;65939;50.060;14.288;2023-12-04T09:10:13;97505.75;;;-3.48;77.09
77003;BME280;65939;50.060;14.288;2023-12-04T09:12:13;97505.47;;;-3.42;77.24
77003;BME280;65939;50.060;14.288;2023-12-04T09:14:15;97506.13;;;-3.37;77.04
77003;BME280;65939;50.060;14.288;2023-12-04T09:16:16;97500.81;;;-3.32;77.22
77003;BME280;65939;50.060;14.288;2023-12-04T09:18:17;97498.72;;;-3.22;77.13
77003;BME280;65939;50.060;14.288;2023-12-04T09:20:18;97502.59;;;-3.14;77.51
77003;BME280;65939;50.060;14.288;2023-12-04T09:22:19;97495.38;;;-3.04;76.91
77003;BME280;65939;50.060;14.288;2023-12-04T09:24:20;97492.47;;;-2.96;76.84
77003;BME280;65939;50.060;14.288;2023-12-04T09:26:20;97477.56;;;-2.86;76.93
77003;BME280;65939;50.060;14.288;2023-12-04T09:28:21;97468.53;;;-2.75;77.03
77003;BME280;65939;50.060;14.288;2023-12-04T09:30:22;97472.41;;;-2.66;76.53
77003;BME280;65939;50.060;14.288;2023-12-04T09:32:22;97461.00;;;-2.59;76.86
77003;BME280;65939;50.060;14.288;2023-12-04T09:34:23;97461.63;;;-2.54;76.43
77003;BME280;65939;50.060;14.288;2023-12-04T09:36:23;97459.69;;;-2.49;76.23
77003;BME280;65939;50.060;14.288;2023-12-04T09:38:24;97467.88;;;-2.42;76.20
77003;BME280;65939;50.060;14.288;2023-12-04T09:40:25;97459.88;;;-2.34;76.00
77003;BME280;65939;50.060;14.288;2023-12-04T09:42:26;97458.69;;;-2.27;75.56
77003;BME280;65939;50.060;14.288;2023-12-04T09:44:28;97459.19;;;-2.21;75.87
77003;BME280;65939;50.060;14.288;2023-12-04T09:46:31;97456.34;;;-2.14;75.93
77003;BME280;65939;50.060;14.288;2023-12-04T09:48:31;97445.84;;;-2.08;75.79
77003;BME280;65939;50.060;14.288;2023-12-04T09:50:33;97447.28;;;-2.03;75.51
77003;BME280;65939;50.060;14.288;2023-12-04T09:52:34;97435.00;;;-1.96;76.01
77003;BME280;65939;50.060;14.288;2023-12-04T09:54:36;97432.09;;;-1.88;75.21
77003;BME280;65939;50.060;14.288;2023-12-04T09:56:37;97422.34;;;-1.82;75.07
77003;BME280;65939;50.060;14.288;2023-12-04T09:58:40;97421.91;;;-1.73;75.34
77003;BME280;65939;50.060;14.288;2023-12-04T10:00:42;97409.69;;;-1.67;74.96
77003;BME280;65939;50.060;14.288;2023-12-04T10:02:45;97406.13;;;-1.63;74.71
77003;BME280;65939;50.060;14.288;2023-12-04T10:04:46;97399.84;;;-1.58;74.86
77003;BME280;65939;50.060;14.288;2023-12-04T10:06:50;97396.97;;;-1.52;74.79
77003;BME280;65939;50.060;14.288;2023-12-04T10:08:52;97379.06;;;-1.52;74.41
77003;BME280;65939;50.060;14.288;2023-12-04T10:10:52;97384.03;;;-1.49;74.21
77003;BME280;65939;50.060;14.288;2023-12-04T10:12:53;97378.75;;;-1.46;74.00
77003;BME280;65939;50.060;14.288;2023-12-04T10:17:15;97367.44;;;-1.41;73.70
77003;BME280;65939;50.060;14.288;2023-12-04T10:19:26;97376.00;;;-1.42;73.05
77003;BME280;65939;50.060;14.288;2023-12-04T10:21:32;97368.31;;;-1.42;73.32
77003;BME280;65939;50.060;14.288;2023-12-04T10:23:42;97369.19;;;-1.42;73.53
77003;BME280;65939;50.060;14.288;2023-12-04T10:25:43;97370.81;;;-1.41;73.59
77003;BME280;65939;50.060;14.288;2023-12-04T10:27:45;97364.78;;;-1.40;73.04
77003;BME280;65939;50.060;14.288;2023-12-04T10:29:48;97367.28;;;-1.38;73.42
77003;BME280;65939;50.060;14.288;2023-12-04T10:31:50;97368.09;;;-1.38;73.69
77003;BME280;65939;50.060;14.288;2023-12-04T10:33:53;97363.66;;;-1.34;73.72
77003;BME280;65939;50.060;14.288;2023-12-04T10:35:55;97371.91;;;-1.29;73.79